createdAt,value
2022-10-23T00:01:12.327Z,19.50
2022-10-23T00:03:39.116Z,21.95
2022-10-23T00:06:06.137Z,16.88
2022-10-23T00:08:32.671Z,17.63
2022-10-23T00:10:59.394Z,18.57
2022-10-23T00:13:25.966Z,19.75
2022-10-23T00:18:23.856Z,18.63
2022-10-23T00:20:50.387Z,17.80
2022-10-23T00:23:17.629Z,20.17
2022-10-23T00:25:44.153Z,20.05
2022-10-23T00:28:10.984Z,19.60
2022-10-23T00:30:37.481Z,18.08
2022-10-23T00:33:03.987Z,18.27
2022-10-23T00:35:30.497Z,18.50
2022-10-23T00:37:57.034Z,21.97
2022-10-23T00:40:23.658Z,20.63
2022-10-23T00:42:50.173Z,19.77
2022-10-23T00:45:26.974Z,19.63
2022-10-23T00:47:54.870Z,19.05
2022-10-23T00:50:24.192Z,18.25
2022-10-23T00:52:52.915Z,18.85
2022-10-23T00:55:21.372Z,18.80
2022-10-23T00:57:49.831Z,16.75
2022-10-23T01:00:29.356Z,20.33
2022-10-23T01:02:57.459Z,21.83
2022-10-23T01:05:44.801Z,20.83
2022-10-23T01:08:23.115Z,20.95
2022-10-23T01:10:58.619Z,20.20
2022-10-23T01:13:34.405Z,23.65
2022-10-23T01:16:17.385Z,18.38
2022-10-23T01:19:21.291Z,17.15
2022-10-23T01:22:13.349Z,19.35
2022-10-23T01:24:59.539Z,21.70
2022-10-23T01:27:48.347Z,21.47
2022-10-23T01:30:17.091Z,20.58
2022-10-23T01:32:56.647Z,17.63
2022-10-23T01:35:29.143Z,18.10
2022-10-23T01:38:07.670Z,17.70
2022-10-23T01:40:42.638Z,19.40
2022-10-23T01:43:16.875Z,18.52
2022-10-23T01:45:47.724Z,22.70
2022-10-23T01:48:18.062Z,21.23
2022-10-23T01:50:46.551Z,19.25
2022-10-23T01:53:13.144Z,18.98
2022-10-23T01:58:16.043Z,19.70
2022-10-23T02:00:45.633Z,19.75
2022-10-23T02:03:15.600Z,22.10
2022-10-23T02:05:44.128Z,20.38
2022-10-23T02:08:11.075Z,20.50
2022-10-23T02:10:49.347Z,20.60
2022-10-23T02:13:46.436Z,21.50
2022-10-23T02:16:20.376Z,23.13
2022-10-23T02:18:59.232Z,21.67
2022-10-23T02:22:04.228Z,22.17
2022-10-23T02:24:43.579Z,28.08
2022-10-23T02:27:18.178Z,22.77
2022-10-23T02:29:51.168Z,20.27
2022-10-23T02:32:20.691Z,22.15
2022-10-23T02:34:47.985Z,23.65
2022-10-23T02:37:15.246Z,26.02
2022-10-23T02:39:42.079Z,22.33
2022-10-23T02:42:17.359Z,25.73
2022-10-23T02:44:50.107Z,26.35
2022-10-23T02:47:40.991Z,28.75
2022-10-23T02:50:07.662Z,22.20
2022-10-23T02:52:41.951Z,25.13
2022-10-23T02:55:16.615Z,24.45
2022-10-23T02:57:55.983Z,26.15
2022-10-23T03:00:23.296Z,27.75
2022-10-23T03:03:03.267Z,28.85
2022-10-23T03:05:36.228Z,34.30
2022-10-23T03:08:05.314Z,30.75
2022-10-23T03:10:32.070Z,30.63
2022-10-23T03:12:58.935Z,29.65
2022-10-23T03:15:25.526Z,27.00
2022-10-23T03:17:52.115Z,33.53
2022-10-23T03:20:19.127Z,31.07
2022-10-23T03:22:46.044Z,32.03
2022-10-23T03:25:12.793Z,28.63
2022-10-23T03:27:39.314Z,29.63
2022-10-23T03:30:07.291Z,36.60
2022-10-23T03:32:34.020Z,24.70
2022-10-23T03:35:00.651Z,34.13
2022-10-23T03:37:27.188Z,29.65
2022-10-23T03:39:53.683Z,27.50
2022-10-23T03:42:20.227Z,30.10
2022-10-23T03:44:46.754Z,31.03
2022-10-23T03:47:13.345Z,27.20
2022-10-23T03:49:40.262Z,27.52
2022-10-23T03:52:07.933Z,34.10
2022-10-23T03:54:35.024Z,27.83
2022-10-23T03:57:01.848Z,24.98
2022-10-23T03:59:28.447Z,26.52
2022-10-23T04:01:55.363Z,26.48
2022-10-23T04:04:22.156Z,27.98
2022-10-23T04:06:48.698Z,28.70
2022-10-23T04:09:15.752Z,27.50
2022-10-23T04:11:42.240Z,28.17
2022-10-23T04:14:12.335Z,25.80
2022-10-23T04:16:39.152Z,25.60
2022-10-23T04:19:05.764Z,27.13
2022-10-23T04:21:32.336Z,26.48
2022-10-23T04:23:58.852Z,27.67
2022-10-23T04:26:25.372Z,25.70
2022-10-23T04:28:51.967Z,27.87
2022-10-23T04:31:19.661Z,28.95
2022-10-23T04:33:46.276Z,32.88
2022-10-23T04:36:12.885Z,26.45
2022-10-23T04:38:39.415Z,24.58
2022-10-23T04:41:06.257Z,26.60
2022-10-23T04:43:32.766Z,26.80
2022-10-23T04:45:59.402Z,28.70
2022-10-23T04:48:28.458Z,33.65
2022-10-23T04:50:57.595Z,29.70
2022-10-23T04:53:25.004Z,29.98
2022-10-23T04:58:19.032Z,28.98
2022-10-23T05:00:46.550Z,35.50
2022-10-23T05:03:13.519Z,46.72
2022-10-23T05:05:40.800Z,36.35
2022-10-23T05:08:07.668Z,56.00
2022-10-23T05:10:34.437Z,48.97
2022-10-23T05:13:01.419Z,57.60
2022-10-23T05:15:27.974Z,45.63
2022-10-23T05:17:59.915Z,54.47
2022-10-23T05:20:31.795Z,53.95
2022-10-23T05:23:00.554Z,39.95
2022-10-23T05:25:27.130Z,33.78
2022-10-23T05:27:53.672Z,35.07
2022-10-23T05:30:20.238Z,32.53
2022-10-23T05:32:46.995Z,36.67
2022-10-23T05:35:19.234Z,35.17
2022-10-23T05:37:47.919Z,36.85
2022-10-23T05:40:14.575Z,39.25
2022-10-23T05:42:41.815Z,38.13
2022-10-23T05:45:09.307Z,35.65
2022-10-23T05:50:02.327Z,35.00
2022-10-23T05:52:28.928Z,29.90
2022-10-23T05:54:55.520Z,32.53
2022-10-23T05:57:22.113Z,30.67
2022-10-23T05:59:48.621Z,48.17
2022-10-23T06:02:15.171Z,46.57
2022-10-23T06:04:41.725Z,44.40
2022-10-23T06:07:08.268Z,36.20
2022-10-23T06:09:34.822Z,35.17
2022-10-23T06:12:02.744Z,27.97
2022-10-23T06:14:29.286Z,26.85
2022-10-23T06:16:55.871Z,25.27
2022-10-23T06:19:22.472Z,25.07
2022-10-23T06:21:49.000Z,27.17
2022-10-23T06:24:15.560Z,29.63
2022-10-23T06:26:42.064Z,23.57
2022-10-23T06:29:08.631Z,35.90
2022-10-23T06:31:35.190Z,21.67
2022-10-23T06:34:01.746Z,25.07
2022-10-23T06:36:28.415Z,24.43
2022-10-23T06:38:56.461Z,20.98
2022-10-23T06:41:23.393Z,28.15
2022-10-23T06:43:51.521Z,22.13
2022-10-23T06:46:19.228Z,35.38
2022-10-23T06:48:45.830Z,37.65
2022-10-23T06:51:14.142Z,26.67
2022-10-23T06:53:41.430Z,20.75
2022-10-23T06:56:09.139Z,29.30
2022-10-23T06:58:37.404Z,26.17
2022-10-23T07:01:07.075Z,49.00
2022-10-23T07:03:34.881Z,48.70
2022-10-23T07:06:06.878Z,35.15
2022-10-23T07:08:33.774Z,22.67
2022-10-23T07:11:08.849Z,21.65
2022-10-23T07:13:36.965Z,24.73
2022-10-23T07:16:18.217Z,20.33
2022-10-23T07:18:46.288Z,22.60
2022-10-23T07:21:12.936Z,24.73
2022-10-23T07:23:39.586Z,29.30
2022-10-23T07:26:14.292Z,35.55
2022-10-23T07:28:41.642Z,26.20
2022-10-23T07:33:34.850Z,22.65
2022-10-23T07:36:03.658Z,23.50
2022-10-23T07:38:30.195Z,24.88
2022-10-23T07:40:59.204Z,24.07
2022-10-23T07:43:26.267Z,31.27
2022-10-23T07:45:54.142Z,29.83
2022-10-23T07:48:21.820Z,33.85
2022-10-23T07:50:48.340Z,26.00
2022-10-23T07:53:18.669Z,29.43
2022-10-23T07:55:54.039Z,16.48
2022-10-23T07:58:21.024Z,16.85
2022-10-23T08:00:58.924Z,18.05
2022-10-23T08:03:27.337Z,18.15
2022-10-23T08:05:54.887Z,15.75
2022-10-23T08:08:22.730Z,15.90
2022-10-23T08:10:50.788Z,18.90
2022-10-23T08:13:20.324Z,16.27
2022-10-23T08:15:48.393Z,17.38
2022-10-23T08:18:15.446Z,16.80
2022-10-23T08:23:12.330Z,21.88
2022-10-23T08:25:40.328Z,18.45
2022-10-23T08:28:08.030Z,21.95
2022-10-23T08:30:35.157Z,18.85
2022-10-23T08:33:06.500Z,20.30
2022-10-23T08:35:37.756Z,20.05
2022-10-23T08:38:05.588Z,15.35
2022-10-23T08:40:32.873Z,15.23
2022-10-23T08:43:19.051Z,13.82
2022-10-23T08:45:47.827Z,11.55
2022-10-23T08:48:30.220Z,13.20
2022-10-23T08:51:05.401Z,13.68
2022-10-23T08:53:36.579Z,14.02
2022-10-23T08:56:09.391Z,13.75
2022-10-23T08:58:35.896Z,9.77
2022-10-23T09:01:18.393Z,10.52
2022-10-23T09:03:45.075Z,11.55
2022-10-23T09:06:34.452Z,13.52
2022-10-23T09:09:25.629Z,10.63
2022-10-23T09:12:15.209Z,11.05
2022-10-23T09:15:25.758Z,13.05
2022-10-23T09:17:59.866Z,22.48
2022-10-23T09:20:31.565Z,13.10
2022-10-23T09:23:01.861Z,11.85
2022-10-23T09:25:33.834Z,14.15
2022-10-23T09:28:05.236Z,14.30
2022-10-23T09:30:42.339Z,14.10
2022-10-23T09:33:21.812Z,11.98
2022-10-23T09:35:58.669Z,11.60
2022-10-23T09:41:19.249Z,13.63
2022-10-23T09:43:46.366Z,10.40
2022-10-23T09:48:42.380Z,11.32
2022-10-23T09:51:21.886Z,9.60
2022-10-23T09:53:53.013Z,8.02
2022-10-23T09:56:28.330Z,8.18
2022-10-23T09:59:02.348Z,9.18
2022-10-23T10:01:36.301Z,8.40
2022-10-23T10:04:03.220Z,7.38
2022-10-23T10:06:33.804Z,12.55
2022-10-23T10:09:05.715Z,9.63
2022-10-23T10:11:43.463Z,10.73
2022-10-23T10:14:45.000Z,7.35
2022-10-23T10:17:17.586Z,13.82
2022-10-23T10:20:03.856Z,9.45
2022-10-23T10:23:03.707Z,7.22
2022-10-23T10:25:52.143Z,8.05
2022-10-23T10:28:18.868Z,7.95
2022-10-23T10:31:03.899Z,8.80
2022-10-23T10:33:45.578Z,7.13
2022-10-23T10:36:40.050Z,8.95
2022-10-23T10:39:21.644Z,20.13
2022-10-23T10:41:57.160Z,6.05
2022-10-23T10:44:26.671Z,10.32
2022-10-23T10:47:15.939Z,8.65
2022-10-23T10:50:03.092Z,9.85
2022-10-23T10:52:36.941Z,10.20
2022-10-23T10:55:18.369Z,13.02
2022-10-23T10:57:54.949Z,7.40
2022-10-23T11:00:23.939Z,8.70
2022-10-23T11:05:33.597Z,10.25
2022-10-23T11:08:07.274Z,11.20
2022-10-23T11:10:36.233Z,7.32
2022-10-23T11:13:04.356Z,10.70
2022-10-23T11:15:40.823Z,13.88
2022-10-23T11:18:19.447Z,5.90
2022-10-23T11:21:30.604Z,11.82
2022-10-23T11:24:24.523Z,14.30
2022-10-23T11:27:02.919Z,8.30
2022-10-23T11:29:44.496Z,9.63
2022-10-23T11:32:29.285Z,10.07
2022-10-23T11:34:55.823Z,9.63
2022-10-23T11:37:24.626Z,6.85
2022-10-23T11:40:06.392Z,7.18
2022-10-23T11:42:46.892Z,10.07
2022-10-23T11:45:28.640Z,11.85
2022-10-23T11:47:59.875Z,13.52
2022-10-23T11:50:29.763Z,6.32
2022-10-23T11:53:14.651Z,11.50
2022-10-23T11:56:03.044Z,9.02
2022-10-23T11:58:57.379Z,7.43
2022-10-23T12:01:45.582Z,10.65
2022-10-23T12:04:15.417Z,6.55
2022-10-23T12:06:46.522Z,9.02
2022-10-23T12:09:46.627Z,10.82
2022-10-23T12:12:16.639Z,8.40
2022-10-23T12:14:51.267Z,5.78
2022-10-23T12:17:23.754Z,6.95
2022-10-23T12:19:55.394Z,6.55
2022-10-23T12:22:27.913Z,8.73
2022-10-23T12:25:11.553Z,10.98
2022-10-23T12:27:52.814Z,9.63
2022-10-23T12:30:21.386Z,10.50
2022-10-23T12:33:03.254Z,10.55
2022-10-23T12:35:48.975Z,7.53
2022-10-23T12:38:20.249Z,7.55
2022-10-23T12:40:52.564Z,11.32
2022-10-23T12:43:32.423Z,7.25
2022-10-23T12:46:17.733Z,7.85
2022-10-23T12:48:53.516Z,6.88
2022-10-23T12:51:24.193Z,7.60
2022-10-23T12:53:51.374Z,10.15
2022-10-23T12:56:18.650Z,9.70
2022-10-23T12:58:50.409Z,6.85
2022-10-23T13:01:43.925Z,7.57
2022-10-23T13:04:10.820Z,7.97
2022-10-23T13:06:39.619Z,7.22
2022-10-23T13:09:15.226Z,10.35
2022-10-23T13:11:42.575Z,7.50
2022-10-23T13:14:30.002Z,10.50
2022-10-23T13:17:06.547Z,8.90
2022-10-23T13:19:33.820Z,6.68
2022-10-23T13:22:02.873Z,7.22
2022-10-23T13:24:31.143Z,5.45
2022-10-23T13:26:59.021Z,6.63
2022-10-23T13:31:57.632Z,6.03
2022-10-23T13:34:26.844Z,8.88
2022-10-23T13:36:56.068Z,4.07
2022-10-23T13:39:33.865Z,5.68
2022-10-23T13:42:10.567Z,3.67
2022-10-23T13:44:38.020Z,3.25
2022-10-23T13:47:05.390Z,3.15
2022-10-23T13:49:32.110Z,7.20
2022-10-23T13:52:01.419Z,2.97
2022-10-23T13:54:29.152Z,6.50
2022-10-23T13:56:56.864Z,3.47
2022-10-23T13:59:24.005Z,2.78
2022-10-23T14:04:18.862Z,7.60
2022-10-23T14:06:45.816Z,7.85
2022-10-23T14:09:17.768Z,2.72
2022-10-23T14:11:44.965Z,6.43
2022-10-23T14:16:37.906Z,3.25
2022-10-23T14:19:04.522Z,2.78
2022-10-23T14:21:31.110Z,3.55
2022-10-23T14:23:57.740Z,5.15
2022-10-23T14:26:27.592Z,3.15
2022-10-23T14:28:56.052Z,8.52
2022-10-23T14:31:23.832Z,4.97
2022-10-23T14:33:56.048Z,4.82
2022-10-23T14:36:23.144Z,3.75
2022-10-23T14:41:22.238Z,19.15
2022-10-23T14:43:48.745Z,8.45
2022-10-23T14:46:17.606Z,9.38
2022-10-23T14:48:46.252Z,22.75
2022-10-23T14:51:18.089Z,28.02
2022-10-23T14:53:45.427Z,31.60
2022-10-23T14:56:12.141Z,37.15
2022-10-23T14:58:38.760Z,34.78
2022-10-23T15:01:05.503Z,30.92
2022-10-23T15:03:32.163Z,40.97
2022-10-23T15:05:58.778Z,31.27
2022-10-23T15:08:25.520Z,35.70
2022-10-23T15:10:52.059Z,33.00
2022-10-23T15:13:18.673Z,29.08
2022-10-23T15:15:45.376Z,25.90
2022-10-23T15:18:11.957Z,25.30
2022-10-23T15:20:38.547Z,28.90
2022-10-23T15:23:05.079Z,25.48
2022-10-23T15:25:31.644Z,15.88
2022-10-23T15:27:58.155Z,12.50
2022-10-23T15:30:24.717Z,11.00
2022-10-23T15:32:51.309Z,15.60
2022-10-23T15:35:17.900Z,12.77
2022-10-23T15:37:44.772Z,8.82
2022-10-23T15:40:11.929Z,6.88
2022-10-23T15:42:38.478Z,9.63
2022-10-23T15:45:05.484Z,7.05
2022-10-23T15:47:32.015Z,8.30
2022-10-23T15:49:58.568Z,6.03
2022-10-23T15:52:25.116Z,5.75
2022-10-23T15:54:51.646Z,5.25
2022-10-23T15:57:18.208Z,5.85
2022-10-23T15:59:44.734Z,3.33
2022-10-23T16:02:11.949Z,4.78
2022-10-23T16:07:05.039Z,5.65
2022-10-23T16:09:32.948Z,5.55
2022-10-23T16:11:59.590Z,3.80
2022-10-23T16:14:26.094Z,4.32
2022-10-23T16:16:52.721Z,5.37
2022-10-23T16:19:19.496Z,10.50
2022-10-23T16:21:46.086Z,7.05
2022-10-23T16:24:12.721Z,13.73
2022-10-23T16:26:39.704Z,9.15
2022-10-23T16:29:08.184Z,5.25
2022-10-23T16:31:35.682Z,4.57
2022-10-23T16:34:16.604Z,3.17
2022-10-23T16:36:43.282Z,5.18
2022-10-23T16:39:50.655Z,10.77
2022-10-23T16:47:11.081Z,4.10
2022-10-23T16:49:37.606Z,5.13
2022-10-23T16:52:04.260Z,4.63
2022-10-23T16:54:30.831Z,5.35
2022-10-23T16:56:58.631Z,6.00
2022-10-23T16:59:25.198Z,4.78
2022-10-23T17:01:51.952Z,5.50
2022-10-23T17:04:18.685Z,2.10
2022-10-23T17:06:45.504Z,2.38
2022-10-23T17:09:12.221Z,4.47
2022-10-23T17:11:40.507Z,6.40
2022-10-23T17:14:12.017Z,4.32
2022-10-23T17:16:48.212Z,3.00
2022-10-23T17:19:33.005Z,3.90
2022-10-23T17:22:03.497Z,2.80
2022-10-23T17:26:57.021Z,3.67
2022-10-23T17:29:23.630Z,4.22
2022-10-23T17:31:51.406Z,3.63
2022-10-23T17:34:21.578Z,3.85
2022-10-23T17:36:52.188Z,6.65
2022-10-23T17:39:22.253Z,4.03
2022-10-23T17:41:49.654Z,3.22
2022-10-23T17:46:43.159Z,4.03
2022-10-23T17:49:10.792Z,3.50
2022-10-23T17:51:37.649Z,2.95
2022-10-23T17:54:07.194Z,3.70
2022-10-23T17:56:36.538Z,3.75
2022-10-23T17:59:09.782Z,3.17
2022-10-23T18:01:36.709Z,3.17
2022-10-23T18:04:05.585Z,3.90
2022-10-23T18:06:35.657Z,3.80
2022-10-23T18:09:04.638Z,4.10
2022-10-23T18:11:34.583Z,4.40
2022-10-23T18:14:01.692Z,3.60
2022-10-23T18:16:28.615Z,3.45
2022-10-23T18:18:55.670Z,3.50
2022-10-23T18:21:24.016Z,5.53
2022-10-23T18:23:51.447Z,3.75
2022-10-23T18:28:48.336Z,4.05
2022-10-23T18:31:16.571Z,9.05
2022-10-23T18:33:43.327Z,4.88
2022-10-23T18:36:22.609Z,4.60
2022-10-23T18:38:50.309Z,4.63
2022-10-23T18:41:18.026Z,6.35
2022-10-23T18:43:44.901Z,3.47
2022-10-23T18:46:15.260Z,5.43
2022-10-23T18:48:42.710Z,3.65
2022-10-23T18:53:49.170Z,4.18
2022-10-23T18:56:22.052Z,3.55
2022-10-23T18:58:53.704Z,2.45
2022-10-23T19:01:21.073Z,24.27
2022-10-23T19:06:15.162Z,7.30
2022-10-23T19:08:43.558Z,6.90
2022-10-23T19:11:11.826Z,4.40
2022-10-23T19:13:39.603Z,8.93
2022-10-23T19:16:22.348Z,4.65
2022-10-23T19:19:15.099Z,2.75
2022-10-23T19:21:42.499Z,3.97
2022-10-23T19:26:40.447Z,3.22
2022-10-23T19:29:09.895Z,3.00
2022-10-23T19:31:36.603Z,4.65
2022-10-23T19:34:03.648Z,7.88
2022-10-23T19:36:31.824Z,9.68
2022-10-23T19:38:58.436Z,6.40
2022-10-23T19:41:25.027Z,5.30
2022-10-23T19:43:51.551Z,8.03
2022-10-23T19:46:18.112Z,5.37
2022-10-23T19:48:46.415Z,5.00
2022-10-23T19:51:13.558Z,4.25
2022-10-23T19:53:41.964Z,4.50
2022-10-23T19:56:10.883Z,5.88
2022-10-23T19:58:38.009Z,3.03
2022-10-23T20:01:13.840Z,4.65
2022-10-23T20:03:41.792Z,6.28
2022-10-23T20:06:13.519Z,7.78
2022-10-23T20:08:41.286Z,6.38
2022-10-23T20:11:09.326Z,5.25
2022-10-23T20:13:36.199Z,4.00
2022-10-23T20:16:02.705Z,7.10
2022-10-23T20:18:29.359Z,6.60
2022-10-23T20:20:55.925Z,4.88
2022-10-23T20:23:22.849Z,6.47
2022-10-23T20:25:49.393Z,5.72
2022-10-23T20:28:16.048Z,6.33
2022-10-23T20:30:42.675Z,3.10
2022-10-23T20:33:09.405Z,5.05
2022-10-23T20:35:42.595Z,3.20
2022-10-23T20:38:09.649Z,3.10
2022-10-23T20:40:36.216Z,2.83
2022-10-23T20:43:03.345Z,3.07
2022-10-23T20:45:29.912Z,4.45
2022-10-23T20:47:56.818Z,4.53
2022-10-23T20:50:23.928Z,5.55
2022-10-23T20:52:50.899Z,3.83
2022-10-23T20:55:18.108Z,3.50
2022-10-23T20:57:44.933Z,5.97
2022-10-23T21:00:12.317Z,5.10
2022-10-23T21:02:38.901Z,5.28
2022-10-23T21:05:05.992Z,4.75
2022-10-23T21:07:32.527Z,5.13
2022-10-23T21:09:59.399Z,5.57
2022-10-23T21:12:25.900Z,3.85
2022-10-23T21:14:53.579Z,4.37
2022-10-23T21:17:20.420Z,7.47
2022-10-23T21:19:47.129Z,4.47
2022-10-23T21:22:13.706Z,3.45
2022-10-23T21:24:40.249Z,6.37
2022-10-23T21:27:06.843Z,4.50
2022-10-23T21:29:33.392Z,4.60
2022-10-23T21:32:01.650Z,7.07
2022-10-23T21:34:29.342Z,4.40
2022-10-23T21:39:46.333Z,7.20
2022-10-23T21:42:14.124Z,4.88
2022-10-23T21:44:40.942Z,4.07
2022-10-23T21:47:07.479Z,4.53
2022-10-23T21:49:34.056Z,4.37
2022-10-23T21:52:00.548Z,5.37
2022-10-23T21:54:27.147Z,5.22
2022-10-23T21:56:54.021Z,6.25
2022-10-23T21:59:24.318Z,6.07
2022-10-23T22:01:52.060Z,6.32
2022-10-23T22:04:19.781Z,7.03
2022-10-23T22:06:48.754Z,4.38
2022-10-23T22:09:19.196Z,4.90
2022-10-23T22:11:45.943Z,4.65
2022-10-23T22:14:12.509Z,5.70
2022-10-23T22:16:39.050Z,7.47
2022-10-23T22:19:05.644Z,4.67
2022-10-23T22:21:32.198Z,5.53
2022-10-23T22:24:00.334Z,9.20
2022-10-23T22:26:28.891Z,5.40
2022-10-23T22:28:58.288Z,6.03
2022-10-23T22:31:27.899Z,5.35
2022-10-23T22:33:55.560Z,6.82
2022-10-23T22:36:22.062Z,5.15
2022-10-23T22:38:48.738Z,3.50
2022-10-23T22:41:16.008Z,5.75
2022-10-23T22:43:42.657Z,4.47
2022-10-23T22:46:15.337Z,4.93
2022-10-23T22:48:42.478Z,5.97
2022-10-23T22:51:12.125Z,6.90
2022-10-23T22:53:38.725Z,5.38
2022-10-23T22:56:10.052Z,4.37
2022-10-23T22:58:37.116Z,3.72
2022-10-23T23:01:12.141Z,4.82
2022-10-23T23:03:38.951Z,6.00
2022-10-23T23:06:06.822Z,4.22
2022-10-23T23:08:34.923Z,5.57
2022-10-23T23:11:01.570Z,4.57
2022-10-23T23:13:28.211Z,5.18
2022-10-23T23:15:55.169Z,4.28
2022-10-23T23:18:22.351Z,3.95
2022-10-23T23:20:49.155Z,4.15
2022-10-23T23:23:15.776Z,6.88
2022-10-23T23:25:48.463Z,6.30
2022-10-23T23:28:16.883Z,5.53
2022-10-23T23:30:43.522Z,5.10
2022-10-23T23:33:11.776Z,6.35
2022-10-23T23:35:46.115Z,5.63
2022-10-23T23:38:13.234Z,8.85
2022-10-23T23:40:40.496Z,6.47
2022-10-23T23:43:07.076Z,6.57
2022-10-23T23:45:33.596Z,3.95
2022-10-23T23:48:00.163Z,4.73
2022-10-23T23:50:28.003Z,6.67
2022-10-23T23:52:54.523Z,5.30
2022-10-23T23:55:21.048Z,4.00
2022-10-23T23:57:47.984Z,5.47
